Terminal Aerodrome Forecast
Issued by NWS

Home | Current Version | Previous Version | Text Only | Print | Product List | Glossary Off
Versions: 1 2 3 4 5 6 7 8 9 10 11 12

000
FTUS43 KGRB 230500
TAFAUW
TAF
KAUW 230520Z 2306/2406 32007KT P6SM BKN060
     FM230900 30006KT P6SM SCT060
     FM231500 30011KT P6SM SCT060
     FM240100 VRB03KT P6SM SKC=

USA.gov is the U.S. government's official web portal to all federal, state and local government web resources and services.